createdAt,value
2023-03-08T00:00:15.189Z,86.20
2023-03-08T00:01:15.175Z,85.35
2023-03-08T00:02:15.153Z,86.01
2023-03-08T00:03:15.140Z,87.05
2023-03-08T00:04:15.312Z,86.30
2023-03-08T00:05:15.110Z,85.91
2023-03-08T00:06:15.093Z,85.72
2023-03-08T00:07:15.074Z,86.20
2023-03-08T00:08:15.089Z,86.20
2023-03-08T00:09:15.044Z,87.24
2023-03-08T00:10:15.027Z,86.11
2023-03-08T00:11:15.033Z,86.39
2023-03-08T00:12:14.996Z,86.49
2023-03-08T00:13:14.983Z,86.01
2023-03-08T00:14:14.964Z,86.20
2023-03-08T00:15:14.950Z,86.30
2023-03-08T00:16:14.983Z,86.20
2023-03-08T00:17:14.932Z,86.49
2023-03-08T00:18:14.898Z,87.05
2023-03-08T00:19:14.884Z,86.30
2023-03-08T00:20:14.864Z,86.01
2023-03-08T00:21:14.852Z,86.20
2023-03-08T00:22:14.833Z,87.24
2023-03-08T00:23:14.819Z,86.49
2023-03-08T00:24:14.800Z,86.39
2023-03-08T00:25:14.789Z,87.34
2023-03-08T00:26:14.779Z,89.33
2023-03-08T00:27:14.798Z,87.72
2023-03-08T00:28:14.737Z,86.01
2023-03-08T00:29:14.810Z,85.72
2023-03-08T00:30:14.710Z,85.91
2023-03-08T00:31:14.738Z,86.11
2023-03-08T00:32:14.723Z,86.68
2023-03-08T00:33:14.664Z,86.77
2023-03-08T00:34:14.644Z,86.96
2023-03-08T00:35:14.629Z,87.15
2023-03-08T00:36:14.611Z,87.53
2023-03-08T00:37:14.602Z,87.05
2023-03-08T00:38:14.581Z,87.43
2023-03-08T00:39:14.578Z,86.58
2023-03-08T00:40:14.548Z,86.49
2023-03-08T00:41:14.536Z,86.49
2023-03-08T00:42:14.521Z,86.20
2023-03-08T00:43:14.524Z,87.05
2023-03-08T00:44:14.482Z,87.62
2023-03-08T00:45:14.474Z,87.53
2023-03-08T00:46:14.465Z,87.82
2023-03-08T00:47:14.440Z,87.24
2023-03-08T00:48:14.418Z,87.91
2023-03-08T00:49:14.406Z,88.10
2023-03-08T00:50:14.396Z,87.91
2023-03-08T00:51:14.376Z,88.20
2023-03-08T00:52:14.358Z,88.39
2023-03-08T00:53:14.347Z,87.91
2023-03-08T00:54:14.329Z,87.62
2023-03-08T00:55:14.312Z,87.43
2023-03-08T00:56:14.291Z,88.57
2023-03-08T00:57:14.280Z,87.34
2023-03-08T00:58:14.262Z,87.34
2023-03-08T00:59:14.367Z,87.82
2023-03-08T01:00:14.231Z,88.29
2023-03-08T01:01:14.349Z,88.29
2023-03-08T01:02:14.195Z,88.20
2023-03-08T01:03:14.181Z,87.91
2023-03-08T01:04:14.212Z,88.20
2023-03-08T01:05:14.149Z,88.48
2023-03-08T01:06:14.129Z,87.91
2023-03-08T01:07:14.116Z,87.34
2023-03-08T01:08:14.097Z,87.91
2023-03-08T01:09:14.085Z,87.82
2023-03-08T01:10:14.065Z,88.10
2023-03-08T01:11:14.052Z,88.10
2023-03-08T01:12:14.035Z,87.43
2023-03-08T01:13:14.020Z,88.67
2023-03-08T01:14:14.002Z,89.53
2023-03-08T01:15:14.008Z,90.95
2023-03-08T01:16:13.967Z,90.66
2023-03-08T01:17:13.969Z,89.24
2023-03-08T01:18:13.934Z,90.19
2023-03-08T01:19:13.940Z,89.33
2023-03-08T01:20:13.902Z,89.62
2023-03-08T01:21:13.897Z,91.61
2023-03-08T01:22:13.871Z,87.91
2023-03-08T01:23:13.856Z,86.87
2023-03-08T01:24:13.838Z,86.49
2023-03-08T01:25:13.830Z,86.96
2023-03-08T01:26:13.807Z,88.48
2023-03-08T01:27:13.793Z,88.72
2023-03-08T01:28:13.773Z,89.00
2023-03-08T01:29:13.759Z,90.00
2023-03-08T01:30:13.743Z,89.90
2023-03-08T01:31:13.754Z,89.81
2023-03-08T01:32:13.758Z,89.53
2023-03-08T01:33:13.698Z,90.28
2023-03-08T01:34:13.675Z,88.67
2023-03-08T01:35:13.663Z,88.20
2023-03-08T01:36:13.642Z,88.76
2023-03-08T01:37:13.628Z,88.86
2023-03-08T01:38:13.609Z,87.82
2023-03-08T01:39:13.617Z,87.53
2023-03-08T01:40:13.575Z,87.53
2023-03-08T01:41:13.569Z,88.39
2023-03-08T01:42:13.542Z,88.76
2023-03-08T01:43:13.527Z,89.81
2023-03-08T01:44:13.519Z,89.24
2023-03-08T01:45:13.494Z,89.43
2023-03-08T01:46:13.475Z,89.05
2023-03-08T01:47:13.661Z,89.05
2023-03-08T01:48:13.442Z,91.33
2023-03-08T01:49:13.438Z,90.57
2023-03-08T01:50:13.414Z,89.33
2023-03-08T01:51:13.398Z,90.47
2023-03-08T01:52:13.376Z,90.28
2023-03-08T01:53:13.378Z,89.53
2023-03-08T01:54:13.344Z,88.76
2023-03-08T01:55:13.329Z,88.95
2023-03-08T01:56:13.319Z,89.33
2023-03-08T01:57:13.299Z,88.62
2023-03-08T01:58:13.280Z,90.19
2023-03-08T01:59:13.273Z,90.38
2023-03-08T02:00:13.246Z,89.33
2023-03-08T02:01:13.280Z,89.24
2023-03-08T02:02:13.213Z,89.39
2023-03-08T02:03:13.225Z,89.43
2023-03-08T02:04:13.184Z,90.57
2023-03-08T02:05:13.167Z,90.28
2023-03-08T02:06:13.149Z,89.24
2023-03-08T02:07:13.136Z,89.81
2023-03-08T02:08:13.116Z,91.42
2023-03-08T02:09:13.114Z,93.23
2023-03-08T02:10:13.083Z,93.41
2023-03-08T02:11:13.073Z,92.85
2023-03-08T02:12:13.057Z,92.85
2023-03-08T02:13:13.041Z,91.99
2023-03-08T02:14:13.025Z,91.71
2023-03-08T02:15:13.013Z,91.75
2023-03-08T02:16:12.990Z,92.04
2023-03-08T02:17:12.995Z,92.13
2023-03-08T02:18:12.960Z,90.00
2023-03-08T02:19:12.962Z,90.47
2023-03-08T02:20:12.926Z,92.13
2023-03-08T02:21:12.931Z,93.75
2023-03-08T02:22:12.912Z,91.42
2023-03-08T02:23:12.880Z,91.38
2023-03-08T02:24:12.862Z,92.23
2023-03-08T02:25:12.852Z,92.32
2023-03-08T02:26:12.839Z,89.28
2023-03-08T02:27:12.817Z,91.38
2023-03-08T02:28:12.800Z,88.76
2023-03-08T02:29:12.782Z,89.14
2023-03-08T02:30:12.769Z,91.42
2023-03-08T02:31:12.751Z,89.43
2023-03-08T02:32:12.747Z,88.29
2023-03-08T02:33:12.717Z,87.15
2023-03-08T02:34:12.705Z,89.53
2023-03-08T02:35:12.703Z,89.62
2023-03-08T02:36:12.675Z,91.14
2023-03-08T02:37:12.665Z,90.85
2023-03-08T02:38:12.639Z,91.33
2023-03-08T02:39:12.620Z,91.42
2023-03-08T02:40:12.620Z,92.66
2023-03-08T02:41:12.589Z,92.47
2023-03-08T02:42:12.578Z,92.47
2023-03-08T02:43:12.564Z,92.47
2023-03-08T02:44:12.545Z,92.37
2023-03-08T02:45:12.526Z,92.47
2023-03-08T02:46:12.514Z,92.66
2023-03-08T02:47:12.490Z,91.14
2023-03-08T02:48:12.479Z,89.81
2023-03-08T02:49:12.457Z,89.24
2023-03-08T02:50:12.445Z,88.48
2023-03-08T02:51:12.445Z,88.76
2023-03-08T02:52:12.411Z,88.95
2023-03-08T02:53:12.392Z,90.38
2023-03-08T02:54:12.379Z,90.09
2023-03-08T02:55:12.358Z,89.48
2023-03-08T02:56:12.353Z,92.56
2023-03-08T02:57:12.338Z,92.80
2023-03-08T02:58:12.312Z,91.56
2023-03-08T02:59:12.293Z,91.28
2023-03-08T03:00:12.282Z,91.47
2023-03-08T03:01:12.306Z,92.04
2023-03-08T03:02:12.245Z,92.04
2023-03-08T03:03:12.242Z,92.04
2023-03-08T03:04:12.223Z,94.03
2023-03-08T03:05:12.193Z,94.70
2023-03-08T03:06:12.218Z,95.84
2023-03-08T03:07:12.182Z,95.27
2023-03-08T03:08:12.152Z,95.84
2023-03-08T03:09:12.133Z,94.42
2023-03-08T03:10:12.128Z,93.56
2023-03-08T03:11:12.102Z,92.14
2023-03-08T03:12:12.098Z,92.52
2023-03-08T03:13:12.060Z,91.94
2023-03-08T03:14:12.046Z,91.56
2023-03-08T03:15:12.031Z,92.23
2023-03-08T03:16:12.072Z,92.04
2023-03-08T03:17:12.000Z,92.04
2023-03-08T03:18:11.983Z,91.47
2023-03-08T03:19:11.959Z,91.71
2023-03-08T03:20:11.957Z,92.18
2023-03-08T03:21:11.930Z,92.23
2023-03-08T03:22:11.911Z,92.38
2023-03-08T03:23:12.013Z,92.85
2023-03-08T03:24:11.885Z,92.76
2023-03-08T03:25:11.866Z,93.13
2023-03-08T03:26:12.052Z,93.41
2023-03-08T03:27:11.842Z,93.89
2023-03-08T03:28:11.809Z,93.99
2023-03-08T03:29:11.794Z,93.89
2023-03-08T03:30:11.795Z,94.37
2023-03-08T03:31:11.822Z,94.65
2023-03-08T03:32:11.840Z,94.37
2023-03-08T03:33:11.737Z,94.56
2023-03-08T03:34:11.714Z,94.74
2023-03-08T03:35:11.690Z,94.46
2023-03-08T03:36:11.676Z,94.56
2023-03-08T03:37:11.658Z,94.56
2023-03-08T03:38:11.644Z,94.74
2023-03-08T03:39:11.666Z,94.65
2023-03-08T03:40:11.610Z,94.37
2023-03-08T03:41:11.591Z,94.27
2023-03-08T03:42:11.576Z,94.18
2023-03-08T03:43:11.557Z,93.70
2023-03-08T03:44:11.544Z,94.56
2023-03-08T03:45:11.529Z,94.56
2023-03-08T03:46:11.724Z,94.37
2023-03-08T03:47:11.496Z,94.27
2023-03-08T03:48:11.485Z,93.51
2023-03-08T03:49:11.463Z,95.41
2023-03-08T03:50:11.456Z,94.46
2023-03-08T03:51:11.430Z,93.70
2023-03-08T03:52:11.417Z,94.08
2023-03-08T03:53:11.412Z,93.89
2023-03-08T03:54:11.387Z,93.89
2023-03-08T03:55:11.451Z,94.56
2023-03-08T03:56:11.353Z,94.46
2023-03-08T03:57:11.343Z,94.65
2023-03-08T03:58:11.321Z,94.56
2023-03-08T03:59:11.300Z,93.80
2023-03-08T04:00:11.289Z,93.89
2023-03-08T04:01:11.269Z,93.51
2023-03-08T04:02:11.257Z,94.65
2023-03-08T04:03:11.430Z,95.12
2023-03-08T04:04:11.231Z,94.27
2023-03-08T04:05:11.206Z,94.56
2023-03-08T04:06:11.191Z,94.37
2023-03-08T04:07:11.170Z,94.46
2023-03-08T04:08:11.159Z,94.56
2023-03-08T04:09:11.137Z,94.37
2023-03-08T04:10:11.124Z,94.27
2023-03-08T04:11:11.126Z,94.37
2023-03-08T04:12:11.090Z,95.22
2023-03-08T04:13:11.074Z,95.41
2023-03-08T04:14:11.057Z,95.69
2023-03-08T04:15:11.041Z,95.69
2023-03-08T04:16:11.057Z,95.50
2023-03-08T04:17:11.008Z,94.93
2023-03-08T04:18:10.994Z,94.37
2023-03-08T04:19:10.973Z,95.31
2023-03-08T04:20:10.958Z,95.22
2023-03-08T04:21:10.957Z,96.41
2023-03-08T04:22:10.925Z,97.26
2023-03-08T04:23:10.908Z,95.74
2023-03-08T04:24:10.890Z,97.64
2023-03-08T04:25:10.875Z,96.88
2023-03-08T04:26:10.859Z,95.07
2023-03-08T04:27:10.859Z,95.55
2023-03-08T04:28:10.824Z,95.27
2023-03-08T04:29:10.803Z,95.27
2023-03-08T04:30:10.792Z,94.23
2023-03-08T04:31:10.812Z,93.75
2023-03-08T04:32:10.782Z,93.65
2023-03-08T04:33:10.738Z,94.23
2023-03-08T04:34:10.725Z,95.74
2023-03-08T04:35:10.706Z,95.70
2023-03-08T04:36:10.690Z,94.60
2023-03-08T04:37:10.671Z,95.07
2023-03-08T04:38:10.658Z,94.89
2023-03-08T04:39:10.667Z,94.84
2023-03-08T04:40:10.626Z,95.31
2023-03-08T04:41:10.607Z,97.78
2023-03-08T04:42:10.593Z,95.41
2023-03-08T04:43:10.607Z,93.99
2023-03-08T04:44:10.559Z,93.32
2023-03-08T04:45:10.549Z,93.80
2023-03-08T04:46:10.531Z,94.74
2023-03-08T04:47:10.506Z,95.60
2023-03-08T04:48:10.494Z,94.18
2023-03-08T04:49:10.475Z,94.56
2023-03-08T04:50:10.462Z,93.60
2023-03-08T04:51:10.447Z,92.75
2023-03-08T04:52:10.431Z,93.13
2023-03-08T04:53:10.430Z,93.60
2023-03-08T04:54:10.407Z,93.41
2023-03-08T04:55:10.384Z,93.51
2023-03-08T04:56:10.363Z,94.37
2023-03-08T04:57:10.346Z,96.83
2023-03-08T04:58:10.330Z,94.84
2023-03-08T04:59:10.337Z,96.36
2023-03-08T05:00:10.307Z,95.70
2023-03-08T05:01:10.282Z,95.84
2023-03-08T05:02:10.316Z,94.23
2023-03-08T05:03:10.251Z,94.60
2023-03-08T05:04:10.231Z,94.13
2023-03-08T05:05:10.261Z,92.99
2023-03-08T05:06:10.203Z,91.66
2023-03-08T05:07:10.185Z,90.99
2023-03-08T05:08:10.169Z,93.84
2023-03-08T05:09:10.148Z,96.12
2023-03-08T05:10:10.145Z,93.94
2023-03-08T05:11:10.149Z,92.42
2023-03-08T05:12:10.099Z,91.47
2023-03-08T05:13:10.083Z,91.85
2023-03-08T05:14:10.088Z,93.84
2023-03-08T05:15:10.071Z,95.55
2023-03-08T05:16:10.106Z,94.13
2023-03-08T05:17:10.020Z,92.90
2023-03-08T05:18:10.035Z,94.13
2023-03-08T05:19:10.005Z,92.04
2023-03-08T05:20:09.972Z,91.75
2023-03-08T05:21:09.953Z,92.04
2023-03-08T05:22:09.957Z,94.89
2023-03-08T05:23:09.921Z,94.32
2023-03-08T05:24:09.930Z,91.85
2023-03-08T05:25:09.897Z,93.84
2023-03-08T05:26:09.877Z,93.65
2023-03-08T05:27:09.855Z,95.27
2023-03-08T05:28:09.843Z,93.27
2023-03-08T05:29:09.823Z,92.90
2023-03-08T05:30:09.813Z,92.61
2023-03-08T05:31:09.909Z,92.61
2023-03-08T05:32:09.810Z,92.04
2023-03-08T05:33:09.764Z,91.89
2023-03-08T05:34:09.745Z,91.42
2023-03-08T05:35:09.728Z,93.23
2023-03-08T05:36:09.740Z,92.94
2023-03-08T05:37:09.706Z,93.04
2023-03-08T05:38:09.679Z,93.04
2023-03-08T05:39:09.660Z,94.60
2023-03-08T05:40:09.646Z,94.13
2023-03-08T05:41:09.629Z,93.65
2023-03-08T05:42:09.615Z,93.08
2023-03-08T05:43:09.598Z,92.71
2023-03-08T05:44:09.584Z,93.84
2023-03-08T05:45:09.630Z,94.89
2023-03-08T05:46:09.585Z,95.46
2023-03-08T05:47:09.588Z,94.03
2023-03-08T05:48:09.518Z,93.56
2023-03-08T05:49:09.499Z,93.08
2023-03-08T05:50:09.487Z,95.08
2023-03-08T05:51:09.465Z,95.65
2023-03-08T05:52:09.455Z,94.13
2023-03-08T05:53:09.439Z,92.99
2023-03-08T05:54:09.420Z,92.80
2023-03-08T05:55:09.402Z,93.18
2023-03-08T05:56:09.392Z,94.79
2023-03-08T05:57:09.368Z,93.27
2023-03-08T05:58:09.354Z,92.23
2023-03-08T05:59:09.334Z,92.42
2023-03-08T06:00:09.320Z,92.32
2023-03-08T06:01:09.313Z,93.18
2023-03-08T06:02:09.355Z,92.99
2023-03-08T06:03:09.414Z,93.65
2023-03-08T06:04:09.264Z,95.17
2023-03-08T06:05:09.241Z,97.27
2023-03-08T06:06:09.223Z,95.17
2023-03-08T06:07:09.206Z,94.79
2023-03-08T06:08:09.191Z,93.37
2023-03-08T06:09:09.174Z,94.60
2023-03-08T06:10:09.159Z,95.36
2023-03-08T06:11:09.138Z,94.32
2023-03-08T06:12:09.126Z,95.55
2023-03-08T06:13:09.106Z,95.36
2023-03-08T06:14:09.094Z,93.94
2023-03-08T06:15:09.073Z,95.27
2023-03-08T06:16:09.067Z,95.55
2023-03-08T06:17:09.042Z,92.99
2023-03-08T06:18:09.035Z,93.56
2023-03-08T06:19:09.031Z,94.56
2023-03-08T06:20:08.996Z,92.99
2023-03-08T06:21:08.980Z,92.32
2023-03-08T06:22:08.966Z,92.51
2023-03-08T06:23:08.946Z,96.26
2023-03-08T06:24:08.936Z,94.84
2023-03-08T06:25:08.914Z,92.99
2023-03-08T06:26:08.904Z,92.32
2023-03-08T06:27:08.882Z,92.71
2023-03-08T06:28:08.872Z,94.42
2023-03-08T06:29:08.856Z,95.79
2023-03-08T06:30:08.846Z,96.45
2023-03-08T06:31:08.920Z,95.60
2023-03-08T06:32:08.839Z,95.51
2023-03-08T06:33:08.794Z,95.12
2023-03-08T06:34:08.779Z,94.08
2023-03-08T06:35:08.784Z,92.75
2023-03-08T06:36:08.749Z,93.60
2023-03-08T06:37:08.733Z,95.03
2023-03-08T06:38:08.721Z,93.60
2023-03-08T06:39:08.699Z,94.74
2023-03-08T06:40:08.686Z,93.04
2023-03-08T06:41:08.689Z,91.99
2023-03-08T06:42:08.665Z,92.37
2023-03-08T06:43:08.636Z,91.80
2023-03-08T06:44:08.624Z,91.61
2023-03-08T06:45:08.641Z,91.89
2023-03-08T06:46:08.685Z,93.60
2023-03-08T06:47:08.577Z,94.27
2023-03-08T06:48:08.565Z,94.37
2023-03-08T06:49:08.547Z,94.74
2023-03-08T06:50:08.534Z,94.65
2023-03-08T06:51:08.556Z,92.56
2023-03-08T06:52:08.498Z,94.65
2023-03-08T06:53:08.484Z,95.03
2023-03-08T06:54:08.469Z,94.03
2023-03-08T06:55:08.451Z,94.60
2023-03-08T06:56:08.440Z,95.17
2023-03-08T06:57:08.425Z,94.89
2023-03-08T06:58:08.414Z,93.46
2023-03-08T06:59:08.394Z,93.46
2023-03-08T07:00:08.374Z,92.41
2023-03-08T07:01:08.452Z,92.32
2023-03-08T07:02:08.339Z,94.13
2023-03-08T07:03:08.327Z,94.89
2023-03-08T07:04:08.372Z,95.84
2023-03-08T07:05:08.302Z,95.65
2023-03-08T07:06:08.283Z,93.55
2023-03-08T07:07:08.408Z,93.46
2023-03-08T07:08:08.249Z,93.75
2023-03-08T07:09:08.232Z,93.75
2023-03-08T07:10:08.211Z,93.18
2023-03-08T07:11:08.204Z,92.32
2023-03-08T07:12:08.266Z,92.41
2023-03-08T07:13:08.165Z,93.65
2023-03-08T07:14:08.152Z,93.18
2023-03-08T07:15:08.135Z,93.18
2023-03-08T07:16:08.242Z,93.65
2023-03-08T07:17:08.106Z,93.27
2023-03-08T07:18:08.097Z,93.37
2023-03-08T07:19:08.073Z,93.94
2023-03-08T07:20:08.055Z,93.27
2023-03-08T07:21:08.051Z,92.41
2023-03-08T07:22:08.023Z,91.37
2023-03-08T07:23:08.088Z,93.08
2023-03-08T07:24:08.000Z,91.94
2023-03-08T07:25:07.983Z,91.47
2023-03-08T07:26:08.061Z,91.85
2023-03-08T07:27:07.948Z,92.41
2023-03-08T07:28:07.989Z,91.94
2023-03-08T07:29:07.925Z,92.22
2023-03-08T07:30:07.905Z,91.37
2023-03-08T07:31:07.895Z,91.47
2023-03-08T07:32:08.020Z,91.94
2023-03-08T07:33:07.863Z,93.65
2023-03-08T07:34:07.851Z,94.13
2023-03-08T07:35:07.825Z,94.70
2023-03-08T07:36:07.831Z,94.42
2023-03-08T07:37:07.798Z,92.51
2023-03-08T07:38:07.780Z,94.13
2023-03-08T07:39:07.794Z,94.89
2023-03-08T07:40:07.749Z,92.51
2023-03-08T07:41:07.737Z,93.18
2023-03-08T07:42:07.718Z,91.94
2023-03-08T07:43:07.716Z,91.85
2023-03-08T07:44:07.718Z,93.75
2023-03-08T07:45:07.678Z,93.55
2023-03-08T07:46:07.713Z,92.65
2023-03-08T07:47:07.646Z,92.75
2023-03-08T07:48:07.629Z,92.65
2023-03-08T07:49:07.616Z,93.89
2023-03-08T07:50:07.599Z,94.84
2023-03-08T07:51:07.599Z,92.36
2023-03-08T07:52:07.568Z,93.13
2023-03-08T07:53:07.558Z,92.27
2023-03-08T07:54:07.539Z,92.08
2023-03-08T07:55:07.560Z,92.46
2023-03-08T07:56:07.507Z,92.65
2023-03-08T07:57:07.520Z,92.84
2023-03-08T07:58:07.480Z,93.13
2023-03-08T07:59:07.466Z,93.70
2023-03-08T08:00:07.476Z,92.84
2023-03-08T08:01:07.446Z,92.56
2023-03-08T08:02:07.426Z,91.89
2023-03-08T08:03:07.485Z,92.46
2023-03-08T08:04:07.414Z,92.36
2023-03-08T08:05:07.426Z,93.60
2023-03-08T08:06:07.362Z,94.65
2023-03-08T08:07:07.360Z,95.51
2023-03-08T08:08:07.334Z,95.89
2023-03-08T08:09:07.319Z,95.79
2023-03-08T08:10:07.301Z,97.60
2023-03-08T08:11:07.309Z,95.98
2023-03-08T08:12:07.275Z,94.56
2023-03-08T08:13:07.256Z,94.18
2023-03-08T08:14:07.241Z,94.93
2023-03-08T08:15:07.227Z,96.17
2023-03-08T08:16:07.365Z,96.55
2023-03-08T08:17:07.203Z,94.74
2023-03-08T08:18:07.177Z,95.79
2023-03-08T08:19:07.168Z,95.22
2023-03-08T08:20:07.148Z,94.46
2023-03-08T08:21:07.135Z,94.37
2023-03-08T08:22:07.116Z,95.32
2023-03-08T08:23:07.103Z,95.70
2023-03-08T08:24:07.086Z,95.89
2023-03-08T08:25:07.082Z,95.51
2023-03-08T08:26:07.064Z,94.84
2023-03-08T08:27:07.061Z,93.60
2023-03-08T08:28:07.025Z,94.56
2023-03-08T08:29:07.093Z,95.51
2023-03-08T08:30:06.995Z,95.03
2023-03-08T08:31:07.028Z,93.89
2023-03-08T08:32:07.020Z,93.89
2023-03-08T08:33:06.954Z,94.32
2023-03-08T08:34:06.935Z,93.98
2023-03-08T08:35:06.932Z,95.17
2023-03-08T08:36:06.954Z,94.98
2023-03-08T08:37:06.894Z,94.70
2023-03-08T08:38:06.878Z,94.89
2023-03-08T08:39:06.884Z,94.22
2023-03-08T08:40:06.846Z,93.08
2023-03-08T08:41:06.834Z,93.18
2023-03-08T08:42:06.817Z,94.42
2023-03-08T08:43:06.838Z,92.79
2023-03-08T08:44:06.792Z,93.27
2023-03-08T08:45:06.779Z,92.32
2023-03-08T08:46:06.820Z,93.84
2023-03-08T08:47:06.751Z,94.60
2023-03-08T08:48:06.729Z,94.60
2023-03-08T08:49:06.725Z,94.03
2023-03-08T08:50:06.704Z,95.17
2023-03-08T08:51:06.685Z,95.27
2023-03-08T08:52:06.675Z,94.42
2023-03-08T08:53:06.783Z,93.84
2023-03-08T08:54:06.722Z,94.22
2023-03-08T08:55:06.627Z,93.94
2023-03-08T08:56:12.027Z,95.17
2023-03-08T08:57:06.597Z,94.03
2023-03-08T08:58:06.580Z,94.79
2023-03-08T08:59:06.586Z,94.79
2023-03-08T09:00:06.550Z,96.12
2023-03-08T09:01:08.631Z,95.27
2023-03-08T09:02:06.599Z,94.42
2023-03-08T09:03:06.507Z,93.94
2023-03-08T09:04:06.513Z,94.13
2023-03-08T09:05:06.603Z,94.79
2023-03-08T09:06:06.461Z,94.22
2023-03-08T09:07:06.449Z,94.22
2023-03-08T09:08:06.431Z,95.46
2023-03-08T09:09:06.420Z,95.56
2023-03-08T09:10:06.400Z,95.56
2023-03-08T09:11:06.389Z,95.46
2023-03-08T09:12:06.371Z,95.46
2023-03-08T09:13:06.390Z,95.08
2023-03-08T09:14:06.342Z,95.75
2023-03-08T09:15:06.376Z,96.03
2023-03-08T09:16:06.347Z,95.70
2023-03-08T09:17:06.299Z,95.12
2023-03-08T09:18:06.283Z,95.79
2023-03-08T09:19:06.282Z,95.22
2023-03-08T09:20:06.257Z,96.27
2023-03-08T09:21:06.273Z,95.41
2023-03-08T09:22:06.227Z,94.74
2023-03-08T09:23:06.233Z,95.12
2023-03-08T09:24:06.217Z,95.32
2023-03-08T09:25:06.187Z,95.03
2023-03-08T09:26:06.179Z,95.70
2023-03-08T09:27:06.163Z,95.41
2023-03-08T09:28:06.141Z,95.70
2023-03-08T09:29:06.130Z,96.46
2023-03-08T09:30:06.114Z,96.84
2023-03-08T09:31:06.126Z,95.98
2023-03-08T09:32:06.304Z,95.32
2023-03-08T09:33:06.073Z,95.60
2023-03-08T09:34:06.055Z,96.84
2023-03-08T09:35:06.044Z,97.03
2023-03-08T09:36:06.024Z,96.65
2023-03-08T09:37:06.017Z,96.65
2023-03-08T09:38:05.998Z,97.60
2023-03-08T09:39:05.986Z,97.17
2023-03-08T09:40:05.968Z,97.27
2023-03-08T09:41:05.966Z,97.55
2023-03-08T09:42:05.938Z,97.27
2023-03-08T09:43:05.927Z,97.93
2023-03-08T09:44:05.912Z,98.50
2023-03-08T09:45:07.393Z,98.32
2023-03-08T09:46:05.973Z,98.41
2023-03-08T09:47:05.885Z,98.69
2023-03-08T09:48:05.930Z,99.17
2023-03-08T09:49:05.840Z,98.98
2023-03-08T09:50:05.822Z,99.55
2023-03-08T09:51:05.810Z,99.17
2023-03-08T09:52:05.795Z,99.74
2023-03-08T09:53:05.782Z,99.99
2023-03-08T09:54:05.764Z,99.99
2023-03-08T09:55:05.792Z,99.99
2023-03-08T09:56:05.730Z,99.99
2023-03-08T09:57:05.762Z,99.98
2023-03-08T09:58:05.699Z,99.99
2023-03-08T09:59:05.689Z,99.89
2023-03-08T10:00:05.687Z,99.99
2023-03-08T10:01:05.742Z,99.99
2023-03-08T10:02:05.650Z,99.99
2023-03-08T10:03:05.736Z,99.99
2023-03-08T10:04:05.639Z,99.99
2023-03-08T10:05:13.412Z,99.99
2023-03-08T10:06:05.584Z,99.99
2023-03-08T10:07:05.570Z,99.99
2023-03-08T10:08:05.556Z,99.99
2023-03-08T10:09:05.546Z,99.99
2023-03-08T10:10:05.523Z,99.99
2023-03-08T10:11:05.514Z,99.99
2023-03-08T10:12:08.284Z,99.99
2023-03-08T10:13:05.482Z,99.99
2023-03-08T10:14:05.465Z,99.99
2023-03-08T10:15:05.454Z,99.99
2023-03-08T10:16:05.438Z,99.99
2023-03-08T10:17:05.543Z,99.99
2023-03-08T10:18:05.407Z,99.99
2023-03-08T10:19:05.570Z,99.99
2023-03-08T10:20:05.377Z,99.99
2023-03-08T10:21:05.368Z,99.99
2023-03-08T10:22:05.349Z,99.99
2023-03-08T10:23:05.337Z,99.99
2023-03-08T10:24:05.320Z,99.99
2023-03-08T10:25:05.312Z,99.99
2023-03-08T10:26:05.291Z,99.99
2023-03-08T10:27:05.279Z,99.99
2023-03-08T10:28:05.261Z,99.99
2023-03-08T10:29:05.256Z,99.99
2023-03-08T10:30:05.236Z,99.99
2023-03-08T10:31:05.297Z,99.99
2023-03-08T10:32:05.310Z,99.99
2023-03-08T10:33:05.221Z,99.99
2023-03-08T10:34:05.200Z,99.99
2023-03-08T10:35:05.199Z,99.99
2023-03-08T10:36:05.203Z,99.99
2023-03-08T10:37:05.152Z,99.99
2023-03-08T10:38:05.144Z,99.99
2023-03-08T10:39:05.184Z,99.99
2023-03-08T10:40:05.100Z,99.99
2023-03-08T10:41:05.107Z,99.99
2023-03-08T10:42:05.085Z,99.99
2023-03-08T10:43:05.075Z,99.99
2023-03-08T10:44:05.069Z,99.99
2023-03-08T10:45:05.043Z,99.99
2023-03-08T10:46:05.130Z,99.99
2023-03-08T10:47:05.019Z,99.99
2023-03-08T10:48:05.022Z,99.99
2023-03-08T10:49:04.985Z,99.99
2023-03-08T10:50:04.980Z,99.99
2023-03-08T10:51:05.023Z,99.99
2023-03-08T10:52:04.930Z,99.99
2023-03-08T10:53:04.922Z,99.99
2023-03-08T10:54:04.915Z,99.99
2023-03-08T10:55:04.898Z,99.99
2023-03-08T10:56:04.898Z,99.99
2023-03-08T10:57:04.881Z,99.99
2023-03-08T10:58:04.846Z,99.99
2023-03-08T10:59:04.863Z,99.99
2023-03-08T11:00:04.828Z,99.99
2023-03-08T11:01:04.812Z,99.99
2023-03-08T11:02:04.792Z,99.99
2023-03-08T11:03:04.775Z,99.99
2023-03-08T11:04:04.763Z,99.99
2023-03-08T11:05:04.812Z,99.99
2023-03-08T11:06:04.750Z,99.99
2023-03-08T11:07:04.771Z,99.99
2023-03-08T11:08:04.723Z,99.99
2023-03-08T11:09:04.693Z,99.99
2023-03-08T11:10:04.683Z,99.99
2023-03-08T11:11:04.662Z,99.99
2023-03-08T11:12:04.686Z,99.99
2023-03-08T11:13:04.638Z,99.99
2023-03-08T11:14:04.625Z,99.99
2023-03-08T11:15:04.608Z,99.99
2023-03-08T11:16:04.613Z,99.99
2023-03-08T11:17:04.580Z,99.99
2023-03-08T11:18:04.574Z,99.99
2023-03-08T11:19:04.593Z,99.99
2023-03-08T11:20:04.542Z,99.99
2023-03-08T11:21:04.525Z,99.99
2023-03-08T11:22:04.515Z,99.99
2023-03-08T11:23:04.526Z,99.99
2023-03-08T11:24:04.524Z,99.99
2023-03-08T11:25:04.474Z,99.99
2023-03-08T11:26:04.459Z,99.99
2023-03-08T11:27:04.649Z,99.99
2023-03-08T11:28:04.463Z,99.99
2023-03-08T11:29:04.446Z,99.99
2023-03-08T11:30:04.411Z,99.99
2023-03-08T11:31:04.409Z,99.99
2023-03-08T11:32:04.377Z,99.99
2023-03-08T11:33:04.553Z,99.99
2023-03-08T11:34:04.383Z,99.99
2023-03-08T11:35:04.331Z,99.99
2023-03-08T11:36:04.382Z,99.99
2023-03-08T11:37:04.305Z,99.99
2023-03-08T11:38:04.296Z,99.99
2023-03-08T11:39:04.302Z,99.99
2023-03-08T11:40:04.272Z,99.99
2023-03-08T11:41:04.251Z,99.99
2023-03-08T11:42:04.241Z,99.99
2023-03-08T11:43:04.223Z,99.99
2023-03-08T11:44:04.241Z,99.99
2023-03-08T11:45:04.198Z,99.99
2023-03-08T11:46:04.192Z,99.99
2023-03-08T11:47:04.167Z,99.99
2023-03-08T11:48:04.157Z,99.99
2023-03-08T11:49:04.177Z,99.99
2023-03-08T11:50:04.131Z,99.99
2023-03-08T11:51:04.119Z,99.99
2023-03-08T11:52:04.104Z,99.99
2023-03-08T11:53:04.104Z,99.99
2023-03-08T11:54:04.082Z,99.99
2023-03-08T11:55:04.196Z,99.99
2023-03-08T11:56:04.051Z,99.99
2023-03-08T11:57:04.033Z,99.99
2023-03-08T11:58:04.030Z,99.99
2023-03-08T11:59:04.001Z,99.99
2023-03-08T12:00:03.996Z,99.99
2023-03-08T12:01:03.974Z,99.99
2023-03-08T12:02:03.975Z,99.99
2023-03-08T12:03:03.947Z,99.99
2023-03-08T12:04:04.500Z,99.99
2023-03-08T12:05:04.040Z,99.99
2023-03-08T12:06:04.020Z,99.99
2023-03-08T12:07:04.065Z,99.99
2023-03-08T12:08:03.925Z,99.99
2023-03-08T12:09:03.949Z,99.99
2023-03-08T12:10:03.913Z,99.99
2023-03-08T12:11:03.881Z,99.99
2023-03-08T12:12:03.826Z,99.99
2023-03-08T12:13:03.810Z,99.99
2023-03-08T12:14:03.804Z,99.99
2023-03-08T12:15:03.826Z,99.99
2023-03-08T12:16:03.826Z,99.99
2023-03-08T12:17:03.911Z,99.99
2023-03-08T12:18:03.750Z,99.99
2023-03-08T12:19:03.735Z,99.99
2023-03-08T12:20:03.721Z,99.99
2023-03-08T12:21:03.706Z,99.99
2023-03-08T12:22:03.693Z,99.99
2023-03-08T12:23:03.739Z,99.99
2023-03-08T12:24:04.058Z,99.99
2023-03-08T12:25:03.649Z,99.99
2023-03-08T12:26:03.641Z,99.99
2023-03-08T12:27:03.638Z,99.99
2023-03-08T12:28:03.715Z,99.99
2023-03-08T12:29:03.600Z,99.99
2023-03-08T12:30:03.599Z,99.99
2023-03-08T12:31:03.657Z,99.99
2023-03-08T12:32:03.650Z,99.99
2023-03-08T12:33:03.756Z,99.99
2023-03-08T12:34:03.542Z,99.99
2023-03-08T12:35:03.520Z,99.99
2023-03-08T12:36:03.680Z,99.99
2023-03-08T12:37:03.528Z,99.99
2023-03-08T12:38:03.560Z,99.99
2023-03-08T12:39:03.510Z,99.99
2023-03-08T12:40:03.461Z,99.99
2023-03-08T12:41:03.449Z,99.99
2023-03-08T12:42:03.439Z,99.99
2023-03-08T12:44:03.428Z,99.99
2023-03-08T12:45:03.402Z,99.99
2023-03-08T12:46:03.440Z,99.99
2023-03-08T12:47:04.517Z,99.99
2023-03-08T12:48:03.459Z,99.99
2023-03-08T12:49:03.341Z,99.99
2023-03-08T12:50:03.333Z,99.99
2023-03-08T12:51:03.329Z,99.99
2023-03-08T12:52:03.299Z,99.99
2023-03-08T12:53:03.291Z,99.99